Time;durP1;ratioP1;P1;durP2;ratioP2;P2;SDS_P1;SDS_P2;PMS_P1;PMS_P2;Temp;Humidity;BMP_temperature;BMP_pressure;BME280_temperature;BME280_humidity;BME280_pressure;Samples;Min_cycle;Max_cycle;Signal;HPM_P1;HPM_P2
2022/08/20 00:00:05;;;;;;;10.60;7.50;;;;;;;17.28;100.00;98847.91;5100319;28;20077;-78
2022/08/20 00:02:39;;;;;;;8.88;6.75;;;;;;;17.45;100.00;98859.03;5110100;28;20098;-78
2022/08/20 00:05:07;;;;;;;12.73;7.07;;;;;;;17.43;100.00;98852.09;5110774;28;20108;-78
2022/08/20 00:07:34;;;;;;;9.00;7.05;;;;;;;17.33;100.00;98842.53;5090200;28;20495;-78
2022/08/20 00:10:00;;;;;;;12.20;7.28;;;;;;;17.34;100.00;98868.94;5094897;28;20052;-78
2022/08/20 00:12:28;;;;;;;8.18;6.68;;;;;;;17.28;100.00;98858.91;5096733;28;20044;-78
2022/08/20 00:14:54;;;;;;;8.60;6.20;;;;;;;17.25;100.00;98862.13;5082564;28;20411;-78
2022/08/20 00:17:21;;;;;;;9.38;6.80;;;;;;;17.15;100.00;98867.34;5094035;28;20040;-79
2022/08/20 00:19:47;;;;;;;10.15;5.85;;;;;;;17.14;100.00;98861.00;5094100;28;20063;-78
2022/08/20 00:22:15;;;;;;;13.35;6.10;;;;;;;17.17;100.00;98865.19;5093479;28;20461;-78
2022/08/20 00:24:42;;;;;;;6.93;5.45;;;;;;;17.16;100.00;98875.34;5094132;28;20047;-78
2022/08/20 00:27:09;;;;;;;9.27;5.70;;;;;;;17.09;100.00;98874.63;5087418;28;20056;-78
2022/08/20 00:29:35;;;;;;;7.50;6.13;;;;;;;17.01;100.00;98869.44;5092668;28;20051;-78
2022/08/20 00:32:02;;;;;;;9.75;5.93;;;;;;;16.97;100.00;98873.75;5093313;28;20081;-78
2022/08/20 00:34:29;;;;;;;6.88;5.75;;;;;;;16.85;100.00;98867.34;5093705;28;20480;-78
2022/08/20 00:36:55;;;;;;;7.80;6.20;;;;;;;16.81;100.00;98869.72;5093955;28;20135;-78
2022/08/20 00:39:23;;;;;;;7.03;5.50;;;;;;;16.86;100.00;98855.28;5093963;28;20071;-78
2022/08/20 00:41:50;;;;;;;8.68;4.95;;;;;;;16.95;100.00;98860.25;5090828;28;20047;-78
2022/08/20 00:44:20;;;;;;;5.50;4.53;;;;;;;16.91;100.00;98866.44;5084870;28;20411;-78
2022/08/20 00:46:47;;;;;;;5.05;4.40;;;;;;;16.81;100.00;98861.47;5089326;28;20044;-78
2022/08/20 00:49:17;;;;;;;7.43;4.38;;;;;;;16.72;100.00;98868.38;5093462;28;20400;-78
2022/08/20 00:51:48;;;;;;;5.63;4.13;;;;;;;16.60;100.00;98888.34;5093674;28;20071;-78
2022/08/20 00:54:18;;;;;;;7.13;4.72;;;;;;;16.50;100.00;98881.72;5093076;28;20102;-78
2022/08/20 00:56:49;;;;;;;;;;;;;;;16.52;100.00;98885.94;5088704;28;20047;-78
2022/08/20 00:59:20;;;;;;;6.50;3.58;;;;;;;16.53;100.00;98884.88;5087285;28;19935;-78
2022/08/20 01:01:48;;;;;;;4.47;3.40;;;;;;;16.56;100.00;98883.56;5093098;28;20531;-78
2022/08/20 01:04:15;;;;;;;6.97;3.58;;;;;;;16.43;100.00;98892.81;5092951;28;20411;-78
2022/08/20 01:06:42;;;;;;;7.72;3.90;;;;;;;16.48;100.00;98903.09;5093081;28;20048;-78
2022/08/20 01:09:09;;;;;;;4.43;3.45;;;;;;;16.45;100.00;98898.88;5092939;28;20055;-78
2022/08/20 01:11:36;;;;;;;4.35;3.15;;;;;;;16.38;100.00;98898.13;5090368;28;20498;-78
2022/08/20 01:14:19;;;;;;;4.38;3.38;;;;;;;16.34;100.00;98889.53;5090867;28;20056;-78
2022/08/20 01:16:48;;;;;;;3.38;2.85;;;;;;;16.26;100.00;98892.59;5084122;28;20040;-78
2022/08/20 01:19:21;;;;;;;3.08;2.58;;;;;;;16.33;100.00;98912.53;5093052;28;20416;-78
2022/08/20 01:21:47;;;;;;;3.05;2.70;;;;;;;16.37;100.00;98915.66;5080839;28;20483;-78
2022/08/20 01:24:19;;;;;;;4.38;2.92;;;;;;;16.35;100.00;98906.81;5080100;28;20047;-78
2022/08/20 01:26:49;;;;;;;5.85;2.65;;;;;;;16.28;100.00;98905.00;5091020;28;20385;-78
2022/08/20 01:29:18;;;;;;;3.08;2.60;;;;;;;16.19;100.00;98903.63;5092925;28;20059;-78
2022/08/20 01:31:45;;;;;;;4.63;2.60;;;;;;;16.17;100.00;98907.66;5090313;28;20044;-78
2022/08/20 01:34:14;;;;;;;2.65;2.45;;;;;;;16.15;100.00;98912.53;5092164;28;20294;-78
2022/08/20 01:36:43;;;;;;;2.33;2.10;;;;;;;16.14;100.00;98922.69;5092642;28;20059;-78
2022/08/20 01:39:13;;;;;;;2.45;2.22;;;;;;;16.08;100.00;98923.59;5087934;28;20062;-78
2022/08/20 01:41:59;;;;;;;4.78;2.60;;;;;;;16.02;100.00;98919.84;5087884;28;20072;-78
2022/08/20 01:44:26;;;;;;;3.00;2.20;;;;;;;15.97;100.00;98911.44;5072214;28;20419;-78
2022/08/20 01:46:54;;;;;;;2.75;2.25;;;;;;;16.01;100.00;98929.13;5072179;28;20055;-78
2022/08/20 01:49:24;;;;;;;3.35;2.63;;;;;;;16.08;100.00;98935.38;5079145;28;20503;-78
2022/08/20 01:51:51;;;;;;;2.75;2.42;;;;;;;15.95;100.00;98923.72;5091518;28;20052;-78
2022/08/20 01:54:18;;;;;;;2.60;2.30;;;;;;;16.06;100.00;98928.44;5087460;28;20434;-78
2022/08/20 01:56:55;;;;;;;4.57;2.30;;;;;;;15.87;100.00;98914.72;5090592;28;20518;-78
2022/08/20 01:59:22;;;;;;;3.80;2.67;;;;;;;15.97;100.00;98922.41;5072267;28;20059;-78
2022/08/20 02:01:49;;;;;;;4.07;2.70;;;;;;;16.07;100.00;98919.16;5071828;28;20063;-78
2022/08/20 02:04:16;;;;;;;4.22;2.60;;;;;;;16.04;100.00;98916.88;5071242;28;20049;-78
2022/08/20 02:06:46;;;;;;;8.32;2.65;;;;;;;16.07;100.00;98921.91;5080252;28;20056;-78
2022/08/20 02:09:12;;;;;;;3.03;2.28;;;;;;;15.98;100.00;98915.88;5092048;28;20051;-78
2022/08/20 02:11:39;;;;;;;2.72;2.42;;;;;;;16.17;100.00;98930.44;5092023;28;20051;-78
2022/08/20 02:14:09;;;;;;;3.08;2.42;;;;;;;16.21;100.00;98933.56;5091551;28;20047;-78
2022/08/20 02:16:39;;;;;;;2.92;2.60;;;;;;;16.21;100.00;98934.41;5071634;28;20051;-78
2022/08/20 02:19:08;;;;;;;;;;;;;;;16.20;100.00;98938.22;5072302;28;20377;-78
2022/08/20 02:21:38;;;;;;;3.83;2.92;;;;;;;16.26;100.00;98931.81;5073253;28;19943;-78
2022/08/20 02:24:05;;;;;;;3.95;2.58;;;;;;;16.17;100.00;98933.19;5085805;28;20498;-78
2022/08/20 02:26:32;;;;;;;3.72;2.38;;;;;;;16.22;100.00;98940.72;5091731;28;20059;-78
2022/08/20 02:28:59;;;;;;;3.20;2.30;;;;;;;16.10;100.00;98926.94;5091707;28;20507;-78
2022/08/20 02:31:27;;;;;;;2.90;2.03;;;;;;;16.22;100.00;98933.34;5091789;28;20080;-78
2022/08/20 02:33:53;;;;;;;3.47;2.25;;;;;;;16.15;100.00;98935.28;5088963;28;20125;-78
2022/08/20 02:36:20;;;;;;;5.50;3.03;;;;;;;16.35;100.00;98951.56;5087993;28;20047;-78
2022/08/20 02:38:46;;;;;;;3.92;3.05;;;;;;;16.27;100.00;98946.34;5089247;28;20051;-78
2022/08/20 02:41:14;;;;;;;3.28;2.70;;;;;;;16.33;100.00;98936.38;5085596;28;20504;-78
2022/08/20 02:43:40;;;;;;;5.28;3.50;;;;;;;16.26;100.00;98945.53;5090473;28;20048;-78
2022/08/20 02:46:07;;;;;;;4.53;3.90;;;;;;;16.34;100.00;98938.91;5091752;28;20439;-78
2022/08/20 02:48:35;;;;;;;7.60;4.13;;;;;;;16.40;100.00;98939.91;5091705;28;20047;-78
2022/08/20 02:51:06;;;;;;;5.63;3.65;;;;;;;16.35;100.00;98926.00;5088211;28;20055;-78
2022/08/20 02:53:35;;;;;;;4.78;3.88;;;;;;;16.39;100.00;98933.56;5090672;28;20048;-78
2022/08/20 02:56:02;;;;;;;9.85;6.05;;;;;;;16.40;100.00;98935.25;5089378;28;20044;-78
2022/08/20 02:58:28;;;;;;;6.00;4.05;;;;;;;16.37;100.00;98934.88;5086832;28;20051;-78
2022/08/20 03:00:55;;;;;;;6.25;4.22;;;;;;;16.35;100.00;98926.00;5091211;28;20048;-78
2022/08/20 03:03:22;;;;;;;4.93;3.53;;;;;;;16.33;100.00;98929.00;5090341;28;20408;-78
2022/08/20 03:05:53;;;;;;;8.15;3.35;;;;;;;16.29;100.00;98919.56;5081345;28;20113;-78
2022/08/20 03:08:20;;;;;;;;;;;;;;;16.22;100.00;98919.63;5089187;28;20044;-78
2022/08/20 03:10:47;;;;;;;4.60;3.35;;;;;;;16.20;100.00;98929.13;5089469;28;19989;-78
2022/08/20 03:13:15;;;;;;;3.95;3.40;;;;;;;16.19;100.00;98927.47;5090324;28;20489;-78
2022/08/20 03:15:45;;;;;;;5.68;3.60;;;;;;;16.08;100.00;98927.16;5090739;28;20052;-78
2022/08/20 03:18:12;;;;;;;5.00;3.80;;;;;;;16.14;100.00;98930.03;5089114;28;20051;-78
2022/08/20 03:20:39;;;;;;;6.45;3.72;;;;;;;16.24;100.00;98927.63;5089227;28;20052;-77
2022/08/20 03:23:07;;;;;;;4.07;3.47;;;;;;;16.28;100.00;98926.09;5073297;28;20049;-78
2022/08/20 03:25:34;;;;;;;4.30;3.33;;;;;;;16.24;100.00;98914.75;5070559;28;20052;-77
2022/08/20 03:28:00;;;;;;;3.05;2.50;;;;;;;16.38;100.00;98922.81;5074842;28;20048;-78
2022/08/20 03:30:29;;;;;;;3.95;3.03;;;;;;;16.31;100.00;98909.19;5090649;28;20109;-78
2022/08/20 03:32:56;;;;;;;3.03;2.17;;;;;;;16.39;100.00;98913.53;5087623;28;20163;-78
2022/08/20 03:35:25;;;;;;;6.00;2.70;;;;;;;16.26;100.00;98906.31;5088121;28;20059;-78
2022/08/20 03:37:51;;;;;;;3.80;2.63;;;;;;;16.37;100.00;98916.50;5082551;28;20048;-78
2022/08/20 03:40:24;;;;;;;3.10;2.50;;;;;;;16.37;100.00;98915.66;5075057;28;20052;-78
2022/08/20 03:42:51;;;;;;;5.40;2.75;;;;;;;16.41;100.00;98923.22;5069545;28;20056;-78
2022/08/20 03:45:19;;;;;;;2.72;2.30;;;;;;;16.48;100.00;98920.38;5077011;28;20139;-78
2022/08/20 03:47:46;;;;;;;3.72;2.17;;;;;;;16.56;100.00;98925.56;5088616;28;20044;-78
2022/08/20 03:50:13;;;;;;;2.78;2.30;;;;;;;16.61;100.00;98922.97;5094740;28;20055;-78
2022/08/20 03:52:40;;;;;;;3.78;2.50;;;;;;;16.50;100.00;98918.25;5094233;28;20048;-78
2022/08/20 03:55:09;;;;;;;3.25;2.38;;;;;;;16.42;100.00;98924.91;5094765;28;20056;-78
2022/08/20 03:57:44;;;;;;;3.55;2.90;;;;;;;16.48;100.00;98923.13;5090859;28;20055;-78
2022/08/20 04:00:12;;;;;;;3.10;2.40;;;;;;;16.56;100.00;98933.81;5094547;28;20048;-78
2022/08/20 04:02:39;;;;;;;3.95;2.38;;;;;;;16.53;100.00;98933.41;5080434;28;20048;-79
2022/08/20 04:05:06;;;;;;;4.80;2.58;;;;;;;16.38;100.00;98931.91;5094420;28;20040;-78
2022/08/20 04:07:33;;;;;;;5.90;2.47;;;;;;;16.46;100.00;98934.31;5094682;28;20047;-78
2022/08/20 04:10:00;;;;;;;2.53;2.20;;;;;;;16.54;100.00;98938.66;5094453;28;20055;-78
2022/08/20 04:12:26;;;;;;;2.15;1.95;;;;;;;16.54;100.00;98935.91;5094025;28;20056;-78
2022/08/20 04:14:54;;;;;;;6.20;2.50;;;;;;;16.52;100.00;98931.75;5078107;28;20056;-78
2022/08/20 04:17:21;;;;;;;4.78;2.67;;;;;;;16.45;100.00;98924.44;5083486;28;20076;-78
2022/08/20 04:19:47;;;;;;;3.03;2.55;;;;;;;16.51;100.00;98933.63;5093768;28;20483;-78
2022/08/20 04:22:14;;;;;;;3.35;2.35;;;;;;;16.55;100.00;98936.78;5093278;28;20101;-78
2022/08/20 04:24:41;;;;;;;2.53;2.33;;;;;;;16.60;100.00;98942.41;5093928;28;20251;-79
2022/08/20 04:27:09;;;;;;;2.67;2.40;;;;;;;16.60;100.00;98924.03;5094294;28;20105;-78
2022/08/20 04:29:36;;;;;;;3.00;2.03;;;;;;;16.55;100.00;98926.63;5094129;28;20044;-78
2022/08/20 04:32:06;;;;;;;6.07;3.45;;;;;;;16.62;100.00;98943.03;5075779;28;20381;-78
2022/08/20 04:34:33;;;;;;;5.40;3.83;;;;;;;16.56;100.00;98944.78;5091428;28;20052;-79
2022/08/20 04:36:59;;;;;;;5.72;4.70;;;;;;;16.54;100.00;98944.16;5093967;28;20048;-79
2022/08/20 04:39:26;;;;;;;8.20;5.60;;;;;;;16.50;100.00;98947.59;5093869;28;20468;-79
2022/08/20 04:41:53;;;;;;;5.90;5.25;;;;;;;16.42;100.00;98927.66;5093821;28;20077;-78
2022/08/20 04:44:20;;;;;;;6.80;4.68;;;;;;;16.62;100.00;98951.25;5093154;28;20464;-78
2022/08/20 04:46:47;;;;;;;7.35;5.75;;;;;;;16.61;100.00;98952.31;5091866;28;20073;-80
2022/08/20 04:49:15;;;;;;;7.82;5.30;;;;;;;16.62;100.00;98956.75;5091059;28;20079;-79
2022/08/20 04:51:42;;;;;;;10.88;6.03;;;;;;;16.69;100.00;98951.16;5093287;28;20048;-79
2022/08/20 04:54:08;;;;;;;9.35;6.00;;;;;;;16.71;100.00;98952.63;5093034;28;20071;-79
2022/08/20 04:56:38;;;;;;;9.20;5.15;;;;;;;16.56;100.00;98935.69;5080964;28;20060;-79
2022/08/20 04:59:06;;;;;;;7.38;4.90;;;;;;;16.65;100.00;98959.03;5072441;28;20586;-79
2022/08/20 05:01:33;;;;;;;7.70;4.70;;;;;;;16.74;100.00;98956.78;5081941;28;20549;-79
2022/08/20 05:04:00;;;;;;;5.43;4.05;;;;;;;16.76;100.00;98938.22;5091034;28;20048;-79
2022/08/20 05:06:32;;;;;;;8.32;3.80;;;;;;;16.67;100.00;98945.91;5087864;28;20051;-79
2022/08/20 05:09:00;;;;;;;5.75;4.10;;;;;;;16.58;100.00;98942.63;5093215;28;20130;-79
2022/08/20 05:11:27;;;;;;;7.55;4.25;;;;;;;16.68;100.00;98957.72;5093137;28;20044;-79
2022/08/20 05:13:53;;;;;;;4.60;3.65;;;;;;;16.83;100.00;98974.66;5092424;28;20048;-79
2022/08/20 05:16:20;;;;;;;4.30;3.67;;;;;;;16.76;100.00;98962.91;5091521;28;20055;-79
2022/08/20 05:18:47;;;;;;;5.10;3.75;;;;;;;16.84;100.00;98962.59;5089160;28;20448;-79
2022/08/20 05:21:13;;;;;;;3.95;2.97;;;;;;;16.97;100.00;98972.59;5090553;28;20071;-79
2022/08/20 05:23:41;;;;;;;4.55;3.35;;;;;;;16.86;100.00;98967.84;5092013;28;20052;-79
2022/08/20 05:26:09;;;;;;;3.40;3.10;;;;;;;16.95;100.00;98980.22;5093151;28;20048;-78
2022/08/20 05:28:37;;;;;;;4.32;3.08;;;;;;;17.10;100.00;98999.88;5092768;28;20052;-79
2022/08/20 05:31:08;;;;;;;6.60;3.40;;;;;;;17.10;100.00;98996.28;5089957;28;20101;-79
2022/08/20 05:33:36;;;;;;;3.60;3.17;;;;;;;17.11;100.00;98978.75;5092260;28;20125;-79
2022/08/20 05:36:05;;;;;;;3.25;2.92;;;;;;;17.21;100.00;99001.00;5091192;28;20083;-79
2022/08/20 05:38:33;;;;;;;3.85;2.42;;;;;;;17.32;100.00;98991.97;5091396;28;20048;-79
2022/08/20 05:41:01;;;;;;;3.97;3.13;;;;;;;17.33;100.00;98996.41;5092555;28;20052;-79
2022/08/20 05:43:28;;;;;;;2.95;2.45;;;;;;;17.17;100.00;98973.16;5088650;28;20052;-79
2022/08/20 05:45:57;;;;;;;3.88;2.47;;;;;;;17.36;100.00;99003.34;5083595;28;20062;-79
2022/08/20 05:48:25;;;;;;;2.55;2.35;;;;;;;17.25;100.00;98985.75;5092290;28;20169;-78
2022/08/20 05:50:53;;;;;;;5.07;2.72;;;;;;;17.32;100.00;98996.63;5079059;28;20060;-79
2022/08/20 05:53:21;;;;;;;3.20;2.25;;;;;;;17.30;100.00;99002.34;5071455;28;20132;-79
2022/08/20 05:55:48;;;;;;;4.53;2.67;;;;;;;17.29;100.00;99002.59;5073984;28;20075;-78
2022/08/20 05:58:19;;;;;;;3.20;2.90;;;;;;;17.37;100.00;99007.75;5088580;28;20052;-78
2022/08/20 06:00:46;;;;;;;3.55;3.08;;;;;;;17.45;100.00;99006.59;5091651;28;20491;-79
2022/08/20 06:05:56;;;;;;;4.88;2.72;;;;;;;17.49;100.00;98991.31;5091880;28;20090;-79
2022/08/20 06:08:23;;;;;;;3.08;2.67;;;;;;;17.56;100.00;98999.47;5074364;28;20559;-79
2022/08/20 06:10:50;;;;;;;3.15;2.58;;;;;;;17.58;100.00;98997.31;5070703;28;20096;-79
2022/08/20 06:13:18;;;;;;;2.85;2.33;;;;;;;17.71;100.00;98999.03;5078270;28;20052;-79
2022/08/20 06:15:44;;;;;;;3.75;2.67;;;;;;;17.67;100.00;98985.75;5082799;28;20060;-79
2022/08/20 06:18:11;;;;;;;2.80;2.40;;;;;;;17.83;100.00;99002.63;5084873;28;20055;-78
2022/08/20 06:20:38;;;;;;;3.60;2.55;;;;;;;17.87;100.00;99001.09;5075903;28;20059;-78
2022/08/20 06:23:05;;;;;;;3.92;2.47;;;;;;;17.84;100.00;99009.81;5076039;28;20499;-78
2022/08/20 06:25:33;;;;;;;4.88;3.05;;;;;;;17.72;100.00;99015.28;5088677;28;20139;-78
2022/08/20 06:28:00;;;;;;;9.52;3.08;;;;;;;17.84;100.00;99021.66;5091440;28;20139;-78
2022/08/20 06:30:28;;;;;;;13.40;4.30;;;;;;;17.69;100.00;99015.75;5083104;28;20461;-77
2022/08/20 06:32:55;;;;;;;12.07;3.88;;;;;;;17.74;100.00;99029.63;5089780;28;20044;-78
2022/08/20 06:35:21;;;;;;;7.70;4.35;;;;;;;17.77;100.00;99033.81;5091705;28;20048;-78
2022/08/20 06:37:49;;;;;;;16.00;4.30;;;;;;;17.64;100.00;99012.84;5091043;28;20461;-78
2022/08/20 06:40:18;;;;;;;7.38;4.60;;;;;;;17.74;100.00;99026.88;5076565;28;20045;-77
2022/08/20 06:42:44;;;;;;;10.60;5.40;;;;;;;17.60;100.00;99028.13;5071677;28;20048;-78
2022/08/20 06:45:11;;;;;;;12.40;4.85;;;;;;;17.63;100.00;99024.91;5091001;28;20048;-78
2022/08/20 06:47:41;;;;;;;7.68;5.38;;;;;;;17.57;100.00;99029.47;5090453;28;20052;-78
2022/08/20 06:50:09;;;;;;;7.78;4.90;;;;;;;17.55;100.00;99019.78;5091599;28;20052;-77
2022/08/20 06:52:38;;;;;;;5.72;4.88;;;;;;;17.72;100.00;99039.16;5089972;28;20480;-77
2022/08/20 06:55:06;;;;;;;9.82;5.07;;;;;;;17.69;100.00;99018.50;5091172;28;20051;-77
2022/08/20 06:57:33;;;;;;;9.45;5.13;;;;;;;17.64;100.00;99026.59;5085220;28;20044;-77
2022/08/20 06:59:59;;;;;;;6.82;5.20;;;;;;;17.45;100.00;99012.94;5086237;28;20051;-77
2022/08/20 07:02:26;;;;;;;10.07;5.47;;;;;;;17.46;100.00;99013.75;5086737;28;20048;-77
2022/08/20 07:04:54;;;;;;;7.97;5.72;;;;;;;17.55;100.00;99017.03;5090618;28;20056;-77
2022/08/20 07:07:21;;;;;;;10.25;5.57;;;;;;;17.58;100.00;99017.38;5081267;28;20283;-79
2022/08/20 07:09:47;;;;;;;10.57;6.15;;;;;;;17.77;100.00;99031.91;5079607;28;20044;-77
2022/08/20 07:12:14;;;;;;;8.18;5.35;;;;;;;17.69;100.00;99026.75;5085110;28;20048;-77
2022/08/20 07:14:40;;;;;;;7.53;5.65;;;;;;;17.71;100.00;99032.00;5080618;28;20044;-78
2022/08/20 07:17:07;;;;;;;9.48;5.57;;;;;;;17.77;100.00;99026.41;5073053;28;20056;-77
2022/08/20 07:19:33;;;;;;;11.52;6.10;;;;;;;17.82;100.00;99033.94;5083241;28;20051;-78
2022/08/20 07:22:01;;;;;;;13.13;5.30;;;;;;;17.88;100.00;99030.25;5081189;28;20051;-77
2022/08/20 07:24:28;;;;;;;6.65;4.55;;;;;;;18.03;100.00;99038.91;5075825;28;20044;-77
2022/08/20 07:26:54;;;;;;;8.02;4.55;;;;;;;18.12;100.00;99039.41;5090685;28;20461;-77
2022/08/20 07:29:21;;;;;;;7.97;5.05;;;;;;;18.11;100.00;99036.88;5090518;28;20051;-77
2022/08/20 07:34:32;;;;;;;7.07;5.03;;;;;;;18.27;100.00;99052.69;5087469;28;20555;-77
2022/08/20 07:36:59;;;;;;;10.18;5.45;;;;;;;18.28;100.00;99043.38;5083033;28;20044;-77
2022/08/20 07:39:27;;;;;;;6.95;5.25;;;;;;;18.37;100.00;99044.69;5083719;28;20052;-77
2022/08/20 07:42:02;;;;;;;8.52;5.40;;;;;;;18.37;100.00;99046.63;5088866;28;20407;-77
2022/08/20 07:44:29;;;;;;;9.50;5.50;;;;;;;18.40;100.00;99038.72;5089600;28;20086;-77
2022/08/20 07:46:56;;;;;;;8.38;5.47;;;;;;;18.66;100.00;99058.56;5090320;28;20048;-77
2022/08/20 07:49:22;;;;;;;9.38;5.22;;;;;;;18.77;100.00;99061.56;5079055;28;20059;-77
2022/08/20 07:51:48;;;;;;;8.23;5.78;;;;;;;18.74;100.00;99041.69;5078917;28;20056;-77
2022/08/20 07:54:15;;;;;;;6.30;5.20;;;;;;;18.84;100.00;99056.75;5089216;28;20043;-77
2022/08/20 07:56:43;;;;;;;6.80;5.25;;;;;;;19.07;100.00;99061.41;5090179;28;20467;-77
2022/08/20 07:59:11;;;;;;;7.13;4.82;;;;;;;19.27;100.00;99050.81;5090234;28;20402;-77
2022/08/20 08:01:38;;;;;;;7.63;4.10;;;;;;;19.41;100.00;99050.53;5089676;28;20094;-77
2022/08/20 08:04:05;;;;;;;5.90;4.60;;;;;;;19.45;100.00;99043.44;5084308;28;20044;-77
2022/08/20 08:06:31;;;;;;;6.03;3.92;;;;;;;19.53;100.00;99050.50;5086674;28;20059;-77
2022/08/20 08:09:04;;;;;;;4.65;4.15;;;;;;;19.71;100.00;99046.69;5090136;28;20175;-77
2022/08/20 08:11:32;;;;;;;9.07;4.13;;;;;;;19.83;100.00;99046.63;5088635;28;20052;-78
2022/08/20 08:14:01;;;;;;;5.50;3.90;;;;;;;19.83;100.00;99041.97;5089232;28;20052;-76
2022/08/20 08:16:31;;;;;;;4.72;3.83;;;;;;;20.09;100.00;99054.28;5089918;28;20423;-76
2022/08/20 08:19:00;;;;;;;8.85;4.03;;;;;;;20.24;100.00;99047.34;5080921;28;20445;-76
2022/08/20 08:21:27;;;;;;;5.75;4.07;;;;;;;20.42;100.00;99052.59;5084810;28;20472;-76
2022/08/20 08:23:53;;;;;;;7.30;4.15;;;;;;;20.39;100.00;99036.53;5089117;28;20070;-76
2022/08/20 08:26:21;;;;;;;7.63;3.85;;;;;;;20.54;100.00;99047.00;5090010;28;20117;-76
2022/08/20 08:28:48;;;;;;;5.47;3.70;;;;;;;20.65;100.00;99043.31;5090061;28;20048;-76
2022/08/20 08:31:15;;;;;;;5.82;4.40;;;;;;;20.72;100.00;99029.34;5089816;28;20052;-76
2022/08/20 08:33:43;;;;;;;5.82;3.53;;;;;;;20.84;100.00;99029.22;5088345;28;20052;-76
2022/08/20 08:36:13;;;;;;;6.40;4.45;;;;;;;20.98;100.00;99029.66;5090285;28;20063;-76
2022/08/20 08:38:43;;;;;;;4.40;3.75;;;;;;;21.00;100.00;99038.53;5089613;28;20059;-76
2022/08/20 08:41:15;;;;;;;7.13;3.97;;;;;;;20.90;100.00;99041.19;5093457;28;20051;-77
2022/08/20 08:43:45;;;;;;;5.00;3.70;;;;;;;20.70;100.00;99039.81;5092409;28;20048;-77
2022/08/20 08:46:13;;;;;;;5.53;3.78;;;;;;;20.82;100.00;99037.75;5094061;28;20052;-77
2022/08/20 08:48:44;;;;;;;8.05;4.15;;;;;;;20.80;100.00;99050.97;5090354;28;20040;-77
2022/08/20 08:51:15;;;;;;;7.28;4.50;;;;;;;20.92;100.00;99045.34;5092656;28;20144;-77
2022/08/20 08:53:45;;;;;;;9.20;4.95;;;;;;;20.87;100.00;99050.81;5082436;28;20113;-76
2022/08/20 08:56:14;;;;;;;5.60;3.75;;;;;;;20.79;100.00;99045.72;5093642;28;20051;-76
2022/08/20 08:58:42;;;;;;;4.10;3.30;;;;;;;20.89;100.00;99051.38;5093280;28;20058;-76
2022/08/20 09:01:12;;;;;;;4.70;3.95;;;;;;;21.00;100.00;99057.88;5080422;28;20071;-77
2022/08/20 09:03:43;;;;;;;5.78;4.50;;;;;;;21.01;100.00;99068.66;5082839;28;20143;-76
2022/08/20 09:06:14;;;;;;;8.25;4.57;;;;;;;20.90;100.00;99057.75;5091036;28;20079;-76
2022/08/20 09:08:46;;;;;;;5.38;3.80;;;;;;;20.64;100.00;99058.19;5093151;28;20134;-77
2022/08/20 09:11:14;;;;;;;6.20;3.70;;;;;;;20.88;100.00;99063.53;5091327;28;20074;-77
2022/08/20 09:13:42;;;;;;;5.85;3.28;;;;;;;20.84;100.00;99056.84;5086708;28;20048;-77
2022/08/20 09:16:08;;;;;;;9.82;3.50;;;;;;;21.04;100.00;99059.03;5072519;28;20052;-76
2022/08/20 09:18:35;;;;;;;4.93;3.58;;;;;;;20.82;100.00;99051.56;5072997;28;20055;-78
2022/08/20 09:21:03;;;;;;;4.05;2.80;;;;;;;20.66;100.00;99069.03;5091998;28;20043;-77
2022/08/20 09:23:29;;;;;;;3.90;2.53;;;;;;;20.56;100.00;99050.31;5089590;28;20052;-77
2022/08/20 09:25:57;;;;;;;3.80;2.67;;;;;;;20.69;100.00;99052.75;5092588;28;20097;-77
2022/08/20 09:28:23;;;;;;;3.72;2.83;;;;;;;20.50;100.00;99057.72;5093133;28;20044;-77
2022/08/20 09:30:50;;;;;;;5.20;2.67;;;;;;;20.47;100.00;99044.41;5092512;28;20048;-77
2022/08/20 09:33:16;;;;;;;5.32;2.70;;;;;;;20.61;100.00;99063.38;5087299;28;20048;-77
2022/08/20 09:35:45;;;;;;;4.65;3.15;;;;;;;20.82;100.00;99067.28;5087471;28;20056;-77
2022/08/20 09:38:13;;;;;;;4.47;3.15;;;;;;;20.96;100.00;99049.28;5092515;28;20392;-77
2022/08/20 09:40:40;;;;;;;4.35;3.38;;;;;;;21.14;100.00;99058.34;5092359;28;20048;-77
2022/08/20 09:43:08;;;;;;;5.65;4.00;;;;;;;21.34;100.00;99046.69;5092150;28;20047;-77
2022/08/20 09:45:35;;;;;;;5.65;3.95;;;;;;;21.54;100.00;99046.13;5089764;28;20048;-76
2022/08/20 09:48:02;;;;;;;5.80;4.43;;;;;;;21.55;100.00;99032.03;5092241;28;20055;-76
2022/08/20 09:50:31;;;;;;;6.43;3.83;;;;;;;21.75;100.00;99044.41;5085253;28;20051;-76
2022/08/20 09:53:00;;;;;;;7.68;4.38;;;;;;;21.82;100.00;99042.25;5087255;28;20048;-77
2022/08/20 09:55:40;;;;;;;5.85;4.20;;;;;;;21.97;100.00;99047.09;5091992;28;20105;-76
2022/08/20 09:58:12;;;;;;;4.93;4.07;;;;;;;21.79;100.00;99050.25;5092170;28;20081;-77
2022/08/20 10:00:39;;;;;;;9.10;3.70;;;;;;;21.88;100.00;99054.22;5089678;28;20506;-77
2022/08/20 10:03:06;;;;;;;4.57;4.13;;;;;;;21.90;100.00;99054.78;5089688;28;20044;-76
2022/08/20 10:05:33;;;;;;;3.42;3.13;;;;;;;21.77;100.00;99056.06;5091736;28;20059;-77
2022/08/20 10:07:59;;;;;;;3.88;3.08;;;;;;;21.69;100.00;99053.75;5086884;28;20047;-77
2022/08/20 10:10:26;;;;;;;3.50;3.20;;;;;;;21.87;100.00;99053.38;5090998;28;20051;-77
2022/08/20 10:12:54;;;;;;;4.53;3.58;;;;;;;22.05;100.00;99067.94;5091485;28;20044;-77
2022/08/20 10:15:20;;;;;;;3.67;3.22;;;;;;;21.79;100.00;99048.31;5089669;28;20052;-78
2022/08/20 10:17:47;;;;;;;5.93;3.40;;;;;;;22.06;100.00;99058.53;5091580;28;20063;-77
2022/08/20 10:20:14;;;;;;;4.80;4.00;;;;;;;21.87;100.00;99058.91;5091758;28;20048;-77
2022/08/20 10:22:41;;;;;;;5.93;3.80;;;;;;;21.88;100.00;99068.06;5089437;28;20173;-77
2022/08/20 10:25:08;;;;;;;4.10;3.70;;;;;;;21.93;100.00;99057.03;5082652;28;20060;-77
2022/08/20 10:27:36;;;;;;;7.93;3.75;;;;;;;22.00;100.00;99054.06;5089571;28;20059;-77
2022/08/20 10:30:06;;;;;;;3.92;3.53;;;;;;;22.28;99.37;99069.50;5089804;28;20044;-78
2022/08/20 10:32:33;;;;;;;6.10;3.47;;;;;;;22.57;98.51;99047.06;5087293;28;20067;-77
2022/08/20 10:34:59;;;;;;;4.53;3.20;;;;;;;23.12;95.13;99034.66;5089737;28;20040;-77
2022/08/20 10:37:27;;;;;;;4.82;2.80;;;;;;;23.32;90.53;99038.63;5091153;28;20091;-78
2022/08/20 10:39:54;;;;;;;3.05;2.45;;;;;;;23.19;88.71;99036.34;5082819;28;20044;-78
2022/08/20 10:42:21;;;;;;;2.42;1.80;;;;;;;23.37;86.21;99043.34;5086791;28;20062;-77
2022/08/20 10:44:47;;;;;;;1.65;1.55;;;;;;;23.39;80.16;99046.66;5085765;28;20097;-77
2022/08/20 10:47:19;;;;;;;2.20;1.52;;;;;;;23.44;80.44;99046.66;5090135;28;20259;-77
2022/08/20 10:49:47;;;;;;;1.92;1.63;;;;;;;23.57;81.46;99032.28;5091376;28;20067;-78
2022/08/20 10:52:13;;;;;;;2.25;1.70;;;;;;;23.68;79.83;99030.34;5090707;28;20072;-78
2022/08/20 10:54:41;;;;;;;3.88;1.83;;;;;;;24.25;78.89;99028.47;5091674;28;20059;-78
2022/08/20 10:57:08;;;;;;;2.08;1.80;;;;;;;24.31;76.42;99029.31;5086094;28;20220;-78
2022/08/20 10:59:38;;;;;;;4.88;1.60;;;;;;;24.44;76.33;99019.59;5078131;28;20047;-78
2022/08/20 11:02:05;;;;;;;;;;;;;;;24.12;78.81;99029.91;5088967;28;20047;-78
2022/08/20 11:04:33;;;;;;;4.80;2.35;;;;;;;23.80;81.25;99028.19;5090991;28;20325;-78
2022/08/20 11:07:10;;;;;;;5.72;3.00;;;;;;;23.28;85.82;99029.97;5083443;28;20044;-78
2022/08/20 11:09:37;;;;;;;3.67;2.75;;;;;;;22.80;90.20;99032.78;5070899;28;20053;-78
2022/08/20 11:12:04;;;;;;;2.42;1.80;;;;;;;22.46;91.40;99037.81;5070182;28;20047;-78
2022/08/20 11:14:31;;;;;;;2.85;1.77;;;;;;;22.36;92.29;99032.25;5079759;28;20052;-78
2022/08/20 11:16:57;;;;;;;1.42;1.33;;;;;;;22.25;89.22;99042.34;5088895;28;20079;-78
2022/08/20 11:19:24;;;;;;;3.03;1.45;;;;;;;22.25;90.69;99051.50;5091160;28;20048;-78
2022/08/20 11:21:51;;;;;;;1.75;1.00;;;;;;;22.30;90.67;99044.34;5090540;28;20066;-78
2022/08/20 11:24:18;;;;;;;1.70;1.02;;;;;;;22.34;90.25;99039.97;5090016;28;20058;-78
2022/08/20 11:26:47;;;;;;;3.55;1.38;;;;;;;22.58;88.84;99049.56;5088031;28;20093;-78
2022/08/20 11:29:14;;;;;;;1.65;1.10;;;;;;;22.77;88.80;99051.88;5090356;28;20048;-78
2022/08/20 11:31:40;;;;;;;1.27;1.17;;;;;;;23.11;86.85;99038.53;5085223;28;20051;-77
2022/08/20 11:34:07;;;;;;;1.58;1.00;;;;;;;23.31;82.15;99040.53;5087912;28;20074;-78